sensor_id;sensor_type;location;lat;lon;timestamp;pressure;altitude;pressure_sealevel;temperature;humidity
61014;BME280;46899;47.542;19.082;2023-05-12T00:02:53;100507.13;;;11.60;100.00
61014;BME280;46899;47.542;19.082;2023-05-12T00:05:56;100506.50;;;11.54;100.00
61014;BME280;46899;47.542;19.082;2023-05-12T00:09:01;100503.56;;;11.63;100.00
61014;BME280;46899;47.542;19.082;2023-05-12T00:12:04;100508.97;;;11.57;100.00
61014;BME280;46899;47.542;19.082;2023-05-12T00:15:06;100502.91;;;11.56;100.00
61014;BME280;46899;47.542;19.082;2023-05-12T00:18:09;100509.78;;;11.59;100.00
61014;BME280;46899;47.542;19.082;2023-05-12T00:21:11;100497.56;;;11.61;100.00
61014;BME280;46899;47.542;19.082;2023-05-12T00:24:14;100501.00;;;11.61;100.00
61014;BME280;46899;47.542;19.082;2023-05-12T00:27:17;100501.91;;;11.60;100.00
61014;BME280;46899;47.542;19.082;2023-05-12T00:30:20;100501.06;;;11.60;100.00
61014;BME280;46899;47.542;19.082;2023-05-12T00:33:22;100495.94;;;11.58;100.00
61014;BME280;46899;47.542;19.082;2023-05-12T00:36:25;100495.06;;;11.58;100.00
61014;BME280;46899;47.542;19.082;2023-05-12T00:39:28;100496.56;;;11.63;100.00
61014;BME280;46899;47.542;19.082;2023-05-12T00:42:32;100492.06;;;11.68;100.00
61014;BME280;46899;47.542;19.082;2023-05-12T00:45:34;100499.16;;;11.65;100.00
61014;BME280;46899;47.542;19.082;2023-05-12T00:48:38;100492.28;;;11.62;100.00
61014;BME280;46899;47.542;19.082;2023-05-12T00:51:40;100494.97;;;11.61;100.00
61014;BME280;46899;47.542;19.082;2023-05-12T00:54:44;100486.22;;;11.62;100.00
61014;BME280;46899;47.542;19.082;2023-05-12T00:57:46;100494.81;;;11.64;100.00
61014;BME280;46899;47.542;19.082;2023-05-12T01:00:49;100490.53;;;11.63;100.00
61014;BME280;46899;47.542;19.082;2023-05-12T01:03:52;100486.88;;;11.68;100.00
61014;BME280;46899;47.542;19.082;2023-05-12T01:07:14;100490.47;;;11.64;100.00
61014;BME280;46899;47.542;19.082;2023-05-12T01:10:19;100485.25;;;11.64;100.00
61014;BME280;46899;47.542;19.082;2023-05-12T01:13:23;100487.72;;;11.69;100.00
61014;BME280;46899;47.542;19.082;2023-05-12T01:16:28;100482.59;;;11.66;100.00
61014;BME280;46899;47.542;19.082;2023-05-12T01:19:37;100492.84;;;11.72;100.00
61014;BME280;46899;47.542;19.082;2023-05-12T01:22:42;100484.28;;;11.67;100.00
61014;BME280;46899;47.542;19.082;2023-05-12T01:25:45;100485.53;;;11.57;100.00
61014;BME280;46899;47.542;19.082;2023-05-12T01:28:50;100491.66;;;11.56;100.00
61014;BME280;46899;47.542;19.082;2023-05-12T01:31:53;100496.97;;;11.53;100.00
61014;BME280;46899;47.542;19.082;2023-05-12T01:34:56;100484.19;;;11.47;100.00
61014;BME280;46899;47.542;19.082;2023-05-12T01:37:59;100484.75;;;11.55;100.00
61014;BME280;46899;47.542;19.082;2023-05-12T01:41:01;100487.66;;;11.71;100.00
61014;BME280;46899;47.542;19.082;2023-05-12T01:44:05;100488.03;;;11.60;100.00
61014;BME280;46899;47.542;19.082;2023-05-12T01:47:08;100485.59;;;11.55;100.00
61014;BME280;46899;47.542;19.082;2023-05-12T01:50:12;100492.81;;;11.49;100.00
61014;BME280;46899;47.542;19.082;2023-05-12T01:53:15;100491.88;;;11.50;100.00
61014;BME280;46899;47.542;19.082;2023-05-12T01:56:18;100498.69;;;11.54;100.00
61014;BME280;46899;47.542;19.082;2023-05-12T01:59:21;100491.09;;;11.48;100.00
61014;BME280;46899;47.542;19.082;2023-05-12T02:02:23;100501.69;;;11.43;100.00
61014;BME280;46899;47.542;19.082;2023-05-12T02:05:27;100508.53;;;11.46;100.00
61014;BME280;46899;47.542;19.082;2023-05-12T02:08:29;100505.03;;;11.47;100.00
61014;BME280;46899;47.542;19.082;2023-05-12T02:11:32;100508.47;;;11.47;100.00
61014;BME280;46899;47.542;19.082;2023-05-12T02:14:34;100508.53;;;11.46;100.00
61014;BME280;46899;47.542;19.082;2023-05-12T02:17:37;100512.84;;;11.47;100.00
61014;BME280;46899;47.542;19.082;2023-05-12T02:20:40;100505.13;;;11.44;100.00
61014;BME280;46899;47.542;19.082;2023-05-12T02:23:43;100508.81;;;11.38;100.00
61014;BME280;46899;47.542;19.082;2023-05-12T02:26:46;100509.72;;;11.37;100.00
61014;BME280;46899;47.542;19.082;2023-05-12T02:29:49;100520.41;;;11.30;100.00
61014;BME280;46899;47.542;19.082;2023-05-12T02:32:51;100513.56;;;11.27;100.00
61014;BME280;46899;47.542;19.082;2023-05-12T02:35:54;100518.81;;;11.26;100.00
61014;BME280;46899;47.542;19.082;2023-05-12T02:38:57;100514.59;;;11.22;100.00
61014;BME280;46899;47.542;19.082;2023-05-12T02:42:00;100511.22;;;11.20;100.00
61014;BME280;46899;47.542;19.082;2023-05-12T02:45:02;100514.66;;;11.20;100.00
61014;BME280;46899;47.542;19.082;2023-05-12T02:48:06;100520.75;;;11.21;100.00
61014;BME280;46899;47.542;19.082;2023-05-12T02:51:08;100514.72;;;11.19;100.00
61014;BME280;46899;47.542;19.082;2023-05-12T02:54:11;100522.66;;;11.16;100.00
61014;BME280;46899;47.542;19.082;2023-05-12T02:57:13;100522.53;;;11.19;100.00
61014;BME280;46899;47.542;19.082;2023-05-12T03:00:16;100527.16;;;11.11;100.00
61014;BME280;46899;47.542;19.082;2023-05-12T03:03:19;100524.00;;;11.01;100.00
61014;BME280;46899;47.542;19.082;2023-05-12T03:06:22;100528.47;;;10.97;100.00
61014;BME280;46899;47.542;19.082;2023-05-12T03:09:24;100526.97;;;10.90;100.00
61014;BME280;46899;47.542;19.082;2023-05-12T03:12:26;100524.06;;;10.99;100.00
61014;BME280;46899;47.542;19.082;2023-05-12T03:15:32;100524.97;;;10.98;100.00
61014;BME280;46899;47.542;19.082;2023-05-12T03:18:35;100520.78;;;10.94;100.00
61014;BME280;46899;47.542;19.082;2023-05-12T03:21:37;100525.28;;;10.89;100.00
61014;BME280;46899;47.542;19.082;2023-05-12T03:24:40;100520.88;;;10.91;100.00
61014;BME280;46899;47.542;19.082;2023-05-12T03:27:42;100529.78;;;10.84;100.00
61014;BME280;46899;47.542;19.082;2023-05-12T03:30:45;100531.59;;;10.82;100.00
61014;BME280;46899;47.542;19.082;2023-05-12T03:33:47;100534.09;;;10.85;100.00
61014;BME280;46899;47.542;19.082;2023-05-12T03:36:50;100533.28;;;10.83;100.00
61014;BME280;46899;47.542;19.082;2023-05-12T03:39:52;100530.03;;;10.77;100.00
61014;BME280;46899;47.542;19.082;2023-05-12T03:42:57;100533.28;;;10.83;100.00
61014;BME280;46899;47.542;19.082;2023-05-12T03:46:00;100535.06;;;10.83;100.00
61014;BME280;46899;47.542;19.082;2023-05-12T03:49:04;100535.22;;;10.77;100.00
61014;BME280;46899;47.542;19.082;2023-05-12T03:52:06;100536.84;;;10.81;100.00
61014;BME280;46899;47.542;19.082;2023-05-12T03:55:09;100537.59;;;10.84;100.00
61014;BME280;46899;47.542;19.082;2023-05-12T03:58:12;100541.94;;;10.84;100.00
61014;BME280;46899;47.542;19.082;2023-05-12T04:01:14;100535.84;;;10.85;100.00
61014;BME280;46899;47.542;19.082;2023-05-12T04:04:17;100540.91;;;10.89;100.00
61014;BME280;46899;47.542;19.082;2023-05-12T04:07:20;100537.19;;;10.96;100.00
61014;BME280;46899;47.542;19.082;2023-05-12T04:10:22;100537.19;;;10.96;100.00
61014;BME280;46899;47.542;19.082;2023-05-12T04:13:25;100548.66;;;10.91;100.00
61014;BME280;46899;47.542;19.082;2023-05-12T04:16:28;100552.00;;;10.94;100.00
61014;BME280;46899;47.542;19.082;2023-05-12T04:19:32;100558.06;;;10.95;100.00
61014;BME280;46899;47.542;19.082;2023-05-12T04:22:35;100556.22;;;10.98;100.00
61014;BME280;46899;47.542;19.082;2023-05-12T04:25:38;100560.31;;;11.06;100.00
61014;BME280;46899;47.542;19.082;2023-05-12T04:28:43;100555.72;;;11.14;100.00
61014;BME280;46899;47.542;19.082;2023-05-12T04:31:46;100559.91;;;11.18;100.00
61014;BME280;46899;47.542;19.082;2023-05-12T04:34:49;100562.34;;;11.22;100.00
61014;BME280;46899;47.542;19.082;2023-05-12T04:37:52;100557.84;;;11.27;100.00
61014;BME280;46899;47.542;19.082;2023-05-12T04:40:57;100561.75;;;11.39;100.00
61014;BME280;46899;47.542;19.082;2023-05-12T04:44:00;100560.56;;;11.49;100.00
61014;BME280;46899;47.542;19.082;2023-05-12T04:47:03;100552.03;;;11.44;100.00
61014;BME280;46899;47.542;19.082;2023-05-12T04:50:05;100554.56;;;11.45;100.00
61014;BME280;46899;47.542;19.082;2023-05-12T04:53:08;100556.03;;;11.54;100.00
61014;BME280;46899;47.542;19.082;2023-05-12T04:56:12;100548.78;;;11.62;100.00
61014;BME280;46899;47.542;19.082;2023-05-12T04:59:15;100560.78;;;11.66;100.00
61014;BME280;46899;47.542;19.082;2023-05-12T05:02:18;100564.72;;;11.78;100.00
61014;BME280;46899;47.542;19.082;2023-05-12T05:05:21;100558.16;;;11.66;100.00
61014;BME280;46899;47.542;19.082;2023-05-12T05:08:24;100562.28;;;11.73;100.00
61014;BME280;46899;47.542;19.082;2023-05-12T05:11:27;100563.84;;;11.79;100.00
61014;BME280;46899;47.542;19.082;2023-05-12T05:14:31;100567.75;;;11.90;100.00
61014;BME280;46899;47.542;19.082;2023-05-12T05:17:34;100565.94;;;11.92;100.00
61014;BME280;46899;47.542;19.082;2023-05-12T05:20:38;100568.66;;;11.89;100.00
61014;BME280;46899;47.542;19.082;2023-05-12T05:23:45;100567.75;;;11.90;100.00
61014;BME280;46899;47.542;19.082;2023-05-12T05:26:48;100566.97;;;11.88;100.00
61014;BME280;46899;47.542;19.082;2023-05-12T05:29:51;100569.13;;;12.00;100.00
61014;BME280;46899;47.542;19.082;2023-05-12T05:32:54;100566.50;;;12.00;100.00
61014;BME280;46899;47.542;19.082;2023-05-12T05:35:57;100569.13;;;12.00;100.00
61014;BME280;46899;47.542;19.082;2023-05-12T05:39:00;100574.88;;;12.08;100.00
61014;BME280;46899;47.542;19.082;2023-05-12T05:42:03;100566.84;;;12.14;100.00
61014;BME280;46899;47.542;19.082;2023-05-12T05:45:05;100574.59;;;12.16;100.00
61014;BME280;46899;47.542;19.082;2023-05-12T05:48:08;100571.38;;;12.09;100.00
61014;BME280;46899;47.542;19.082;2023-05-12T05:51:12;100573.09;;;12.10;100.00
61014;BME280;46899;47.542;19.082;2023-05-12T05:54:15;100592.13;;;12.12;100.00
61014;BME280;46899;47.542;19.082;2023-05-12T05:57:18;100591.22;;;12.13;100.00
61014;BME280;46899;47.542;19.082;2023-05-12T06:00:20;100587.25;;;12.26;100.00
61014;BME280;46899;47.542;19.082;2023-05-12T06:03:24;100582.53;;;12.36;100.00
61014;BME280;46899;47.542;19.082;2023-05-12T06:06:27;100589.37;;;12.39;100.00
61014;BME280;46899;47.542;19.082;2023-05-12T06:09:30;100591.28;;;12.57;100.00
61014;BME280;46899;47.542;19.082;2023-05-12T06:12:33;100595.94;;;12.49;100.00
61014;BME280;46899;47.542;19.082;2023-05-12T06:15:36;100594.00;;;12.54;100.00
61014;BME280;46899;47.542;19.082;2023-05-12T06:18:38;100598.06;;;12.61;100.00
61014;BME280;46899;47.542;19.082;2023-05-12T06:21:41;100594.09;;;12.51;100.00
61014;BME280;46899;47.542;19.082;2023-05-12T06:24:44;100597.03;;;12.43;100.00
61014;BME280;46899;47.542;19.082;2023-05-12T06:27:49;100595.72;;;12.55;100.00
61014;BME280;46899;47.542;19.082;2023-05-12T06:30:51;100589.09;;;12.68;100.00
61014;BME280;46899;47.542;19.082;2023-05-12T06:33:54;100595.16;;;12.68;100.00
61014;BME280;46899;47.542;19.082;2023-05-12T06:36:56;100592.81;;;12.62;100.00
61014;BME280;46899;47.542;19.082;2023-05-12T06:39:59;100593.91;;;12.78;100.00
61014;BME280;46899;47.542;19.082;2023-05-12T06:43:01;100597.41;;;12.99;100.00
61014;BME280;46899;47.542;19.082;2023-05-12T06:46:04;100596.16;;;13.09;100.00
61014;BME280;46899;47.542;19.082;2023-05-12T06:49:09;100590.84;;;13.11;100.00
61014;BME280;46899;47.542;19.082;2023-05-12T06:52:11;100599.47;;;13.13;100.00
61014;BME280;46899;47.542;19.082;2023-05-12T06:55:15;100591.38;;;13.19;100.00
61014;BME280;46899;47.542;19.082;2023-05-12T06:58:21;100592.87;;;13.24;100.00
61014;BME280;46899;47.542;19.082;2023-05-12T07:01:23;100587.66;;;13.24;100.00
61014;BME280;46899;47.542;19.082;2023-05-12T07:04:26;100587.59;;;13.26;100.00
61014;BME280;46899;47.542;19.082;2023-05-12T07:07:29;100602.03;;;13.34;100.00
61014;BME280;46899;47.542;19.082;2023-05-12T07:10:31;100595.56;;;13.43;100.00
61014;BME280;46899;47.542;19.082;2023-05-12T07:13:34;100599.44;;;13.34;100.00
61014;BME280;46899;47.542;19.082;2023-05-12T07:16:36;100596.81;;;13.34;100.00
61014;BME280;46899;47.542;19.082;2023-05-12T07:19:39;100595.25;;;13.50;100.00
61014;BME280;46899;47.542;19.082;2023-05-12T07:22:41;100590.19;;;13.66;100.00
61014;BME280;46899;47.542;19.082;2023-05-12T07:25:44;100596.31;;;13.85;100.00
61014;BME280;46899;47.542;19.082;2023-05-12T07:28:47;100591.69;;;13.71;100.00
61014;BME280;46899;47.542;19.082;2023-05-12T07:31:49;100594.31;;;13.71;100.00
61014;BME280;46899;47.542;19.082;2023-05-12T07:34:52;100598.56;;;13.74;100.00
61014;BME280;46899;47.542;19.082;2023-05-12T07:37:54;100593.06;;;13.80;100.00
61014;BME280;46899;47.542;19.082;2023-05-12T07:40:57;100597.53;;;13.97;100.00
61014;BME280;46899;47.542;19.082;2023-05-12T07:44:00;100596.09;;;13.90;100.00
61014;BME280;46899;47.542;19.082;2023-05-12T07:47:03;100600.72;;;13.85;100.00
61014;BME280;46899;47.542;19.082;2023-05-12T07:50:06;100603.91;;;13.91;100.00
61014;BME280;46899;47.542;19.082;2023-05-12T07:53:09;100598.88;;;13.87;100.00
61014;BME280;46899;47.542;19.082;2023-05-12T07:56:12;100600.56;;;13.88;100.00
61014;BME280;46899;47.542;19.082;2023-05-12T07:59:15;100609.09;;;13.73;100.00
61014;BME280;46899;47.542;19.082;2023-05-12T08:02:17;100606.59;;;13.69;100.00
61014;BME280;46899;47.542;19.082;2023-05-12T08:05:22;100612.72;;;13.68;100.00
61014;BME280;46899;47.542;19.082;2023-05-12T08:08:24;100608.00;;;13.58;100.00
61014;BME280;46899;47.542;19.082;2023-05-12T08:11:27;100614.06;;;13.58;100.00
61014;BME280;46899;47.542;19.082;2023-05-12T08:14:29;100618.94;;;13.66;100.00
61014;BME280;46899;47.542;19.082;2023-05-12T08:17:32;100612.72;;;13.68;100.00
61014;BME280;46899;47.542;19.082;2023-05-12T08:20:34;100621.31;;;13.72;100.00
61014;BME280;46899;47.542;19.082;2023-05-12T08:23:37;100618.03;;;13.87;100.00
61014;BME280;46899;47.542;19.082;2023-05-12T08:26:39;100620.81;;;14.03;100.00
61014;BME280;46899;47.542;19.082;2023-05-12T08:29:42;100620.53;;;14.09;100.00
61014;BME280;46899;47.542;19.082;2023-05-12T08:32:44;100619.69;;;14.08;100.00
61014;BME280;46899;47.542;19.082;2023-05-12T08:35:47;100628.00;;;13.98;100.00
61014;BME280;46899;47.542;19.082;2023-05-12T08:38:50;100628.25;;;14.12;100.00
61014;BME280;46899;47.542;19.082;2023-05-12T08:45:04;100627.47;;;14.28;100.00
61014;BME280;46899;47.542;19.082;2023-05-12T08:48:08;100633.81;;;14.43;97.66
61014;BME280;46899;47.542;19.082;2023-05-12T08:51:12;100642.09;;;14.34;99.38
61014;BME280;46899;47.542;19.082;2023-05-12T08:54:15;100633.78;;;14.24;96.30
61014;BME280;46899;47.542;19.082;2023-05-12T08:57:20;100632.78;;;14.08;97.68
61014;BME280;46899;47.542;19.082;2023-05-12T09:00:23;100633.13;;;13.81;100.00
61014;BME280;46899;47.542;19.082;2023-05-12T09:03:26;100634.72;;;13.85;100.00
61014;BME280;46899;47.542;19.082;2023-05-12T09:06:32;100651.44;;;13.81;97.45
61014;BME280;46899;47.542;19.082;2023-05-12T09:09:35;100644.37;;;13.83;95.78
61014;BME280;46899;47.542;19.082;2023-05-12T09:12:39;100649.97;;;13.75;95.76
61014;BME280;46899;47.542;19.082;2023-05-12T09:15:43;100653.41;;;13.35;96.55
61014;BME280;46899;47.542;19.082;2023-05-12T09:18:53;100651.50;;;13.19;99.79
61014;BME280;46899;47.542;19.082;2023-05-12T09:21:57;100660.41;;;13.13;100.00
61014;BME280;46899;47.542;19.082;2023-05-12T09:25:00;100656.44;;;13.03;100.00
61014;BME280;46899;47.542;19.082;2023-05-12T09:28:02;100651.56;;;12.94;100.00
61014;BME280;46899;47.542;19.082;2023-05-12T09:31:15;100664.50;;;12.75;100.00
61014;BME280;46899;47.542;19.082;2023-05-12T09:34:18;100664.94;;;12.86;100.00
61014;BME280;46899;47.542;19.082;2023-05-12T09:37:28;100673.81;;;12.82;100.00
61014;BME280;46899;47.542;19.082;2023-05-12T09:40:30;100677.63;;;12.74;100.00
61014;BME280;46899;47.542;19.082;2023-05-12T09:43:33;100677.53;;;12.54;100.00
61014;BME280;46899;47.542;19.082;2023-05-12T09:46:36;100676.38;;;12.61;100.00
61014;BME280;46899;47.542;19.082;2023-05-12T09:49:44;100677.16;;;12.41;100.00
61014;BME280;46899;47.542;19.082;2023-05-12T09:52:48;100685.13;;;12.36;100.00
61014;BME280;46899;47.542;19.082;2023-05-12T09:55:51;100677.53;;;12.30;100.00
61014;BME280;46899;47.542;19.082;2023-05-12T09:58:54;100680.56;;;12.20;100.00
61014;BME280;46899;47.542;19.082;2023-05-12T10:01:59;100685.28;;;12.09;100.00
61014;BME280;46899;47.542;19.082;2023-05-12T10:05:05;100679.53;;;11.99;100.00
61014;BME280;46899;47.542;19.082;2023-05-12T10:08:08;100685.31;;;11.84;100.00
61014;BME280;46899;47.542;19.082;2023-05-12T10:11:12;100681.37;;;11.73;100.00
61014;BME280;46899;47.542;19.082;2023-05-12T10:14:15;100689.13;;;11.74;100.00
61014;BME280;46899;47.542;19.082;2023-05-12T10:17:18;100691.22;;;11.63;100.00
61014;BME280;46899;47.542;19.082;2023-05-12T10:20:21;100690.53;;;11.32;100.00
61014;BME280;46899;47.542;19.082;2023-05-12T10:23:24;100694.13;;;11.28;100.00
61014;BME280;46899;47.542;19.082;2023-05-12T10:26:27;100691.94;;;11.42;100.00
61014;BME280;46899;47.542;19.082;2023-05-12T10:29:31;100695.91;;;11.52;100.00
61014;BME280;46899;47.542;19.082;2023-05-12T10:32:34;100701.53;;;11.66;100.00
61014;BME280;46899;47.542;19.082;2023-05-12T10:35:37;100701.47;;;11.69;100.00
61014;BME280;46899;47.542;19.082;2023-05-12T10:38:40;100703.56;;;11.58;100.00
61014;BME280;46899;47.542;19.082;2023-05-12T10:41:43;100699.19;;;11.58;100.00
61014;BME280;46899;47.542;19.082;2023-05-12T10:44:49;100698.53;;;11.52;100.00
61014;BME280;46899;47.542;19.082;2023-05-12T10:48:02;100691.41;;;11.57;100.00
61014;BME280;46899;47.542;19.082;2023-05-12T10:51:08;100693.53;;;11.46;100.00
61014;BME280;46899;47.542;19.082;2023-05-12T10:54:19;100693.78;;;11.38;100.00
61014;BME280;46899;47.542;19.082;2023-05-12T10:57:22;100686.50;;;11.22;100.00
61014;BME280;46899;47.542;19.082;2023-05-12T11:00:25;100691.78;;;11.20;100.00
61014;BME280;46899;47.542;19.082;2023-05-12T11:03:30;100693.31;;;10.99;100.00
61014;BME280;46899;47.542;19.082;2023-05-12T11:06:37;100693.47;;;10.93;100.00
61014;BME280;46899;47.542;19.082;2023-05-12T11:09:42;100705.63;;;10.94;100.00
61014;BME280;46899;47.542;19.082;2023-05-12T11:12:59;100699.31;;;11.02;100.00
61014;BME280;46899;47.542;19.082;2023-05-12T11:16:01;100700.22;;;11.00;100.00
61014;BME280;46899;47.542;19.082;2023-05-12T11:19:04;100705.03;;;11.13;100.00
61014;BME280;46899;47.542;19.082;2023-05-12T11:22:08;100699.13;;;11.34;100.00
61014;BME280;46899;47.542;19.082;2023-05-12T11:25:10;100702.91;;;11.51;100.00
61014;BME280;46899;47.542;19.082;2023-05-12T11:28:13;100710.25;;;11.65;100.00
61014;BME280;46899;47.542;19.082;2023-05-12T11:31:16;100700.59;;;11.68;100.00
61014;BME280;46899;47.542;19.082;2023-05-12T11:34:20;100701.75;;;11.60;100.00
61014;BME280;46899;47.542;19.082;2023-05-12T11:37:23;100695.19;;;11.75;100.00
61014;BME280;46899;47.542;19.082;2023-05-12T11:40:26;100689.34;;;11.68;100.00
61014;BME280;46899;47.542;19.082;2023-05-12T11:43:29;100698.03;;;11.67;100.00
61014;BME280;46899;47.542;19.082;2023-05-12T11:46:32;100695.78;;;11.83;100.00
61014;BME280;46899;47.542;19.082;2023-05-12T11:49:44;100689.56;;;11.87;100.00
61014;BME280;46899;47.542;19.082;2023-05-12T11:52:47;100690.69;;;11.80;100.00
61014;BME280;46899;47.542;19.082;2023-05-12T11:55:53;100687.63;;;11.92;100.00
61014;BME280;46899;47.542;19.082;2023-05-12T11:58:56;100686.47;;;12.00;100.00
61014;BME280;46899;47.542;19.082;2023-05-12T12:02:02;100688.28;;;11.98;100.00
61014;BME280;46899;47.542;19.082;2023-05-12T12:05:15;100690.50;;;12.09;100.00
61014;BME280;46899;47.542;19.082;2023-05-12T12:08:17;100686.25;;;12.06;100.00
61014;BME280;46899;47.542;19.082;2023-05-12T12:11:21;100692.84;;;12.16;100.00
61014;BME280;46899;47.542;19.082;2023-05-12T12:14:23;100699.44;;;12.26;100.00
61014;BME280;46899;47.542;19.082;2023-05-12T12:17:26;100701.63;;;12.37;100.00
61014;BME280;46899;47.542;19.082;2023-05-12T12:20:32;100685.94;;;12.39;100.00
61014;BME280;46899;47.542;19.082;2023-05-12T12:23:34;100699.00;;;12.39;100.00
61014;BME280;46899;47.542;19.082;2023-05-12T12:26:52;100698.31;;;12.33;100.00
61014;BME280;46899;47.542;19.082;2023-05-12T12:29:54;100699.88;;;12.37;100.00
61014;BME280;46899;47.542;19.082;2023-05-12T12:32:57;100708.91;;;12.29;100.00
61014;BME280;46899;47.542;19.082;2023-05-12T12:36:00;100711.44;;;12.30;100.00
61014;BME280;46899;47.542;19.082;2023-05-12T12:39:02;100716.91;;;12.24;100.00
61014;BME280;46899;47.542;19.082;2023-05-12T12:42:05;100711.44;;;12.07;100.00
61014;BME280;46899;47.542;19.082;2023-05-12T12:45:08;100710.50;;;12.08;100.00
61014;BME280;46899;47.542;19.082;2023-05-12T12:48:11;100711.50;;;12.06;100.00
61014;BME280;46899;47.542;19.082;2023-05-12T12:51:14;100713.72;;;12.16;100.00
61014;BME280;46899;47.542;19.082;2023-05-12T12:54:16;100703.97;;;12.21;100.00
61014;BME280;46899;47.542;19.082;2023-05-12T12:57:19;100710.31;;;12.14;100.00
61014;BME280;46899;47.542;19.082;2023-05-12T13:00:23;100707.78;;;12.11;100.00
61014;BME280;46899;47.542;19.082;2023-05-12T13:03:26;100715.53;;;12.14;100.00
61014;BME280;46899;47.542;19.082;2023-05-12T13:06:28;100713.41;;;12.01;100.00
61014;BME280;46899;47.542;19.082;2023-05-12T13:09:31;100709.19;;;11.97;100.00
61014;BME280;46899;47.542;19.082;2023-05-12T13:12:34;100704.72;;;12.00;100.00
61014;BME280;46899;47.542;19.082;2023-05-12T13:15:37;100707.44;;;11.97;100.00
61014;BME280;46899;47.542;19.082;2023-05-12T13:18:39;100703.16;;;11.95;100.00
61014;BME280;46899;47.542;19.082;2023-05-12T13:21:42;100706.72;;;11.92;100.00
61014;BME280;46899;47.542;19.082;2023-05-12T13:24:45;100698.06;;;11.92;100.00
61014;BME280;46899;47.542;19.082;2023-05-12T13:27:47;100700.66;;;11.92;100.00
61014;BME280;46899;47.542;19.082;2023-05-12T13:30:50;100698.91;;;11.92;100.00
61014;BME280;46899;47.542;19.082;2023-05-12T13:33:53;100703.94;;;11.98;100.00
61014;BME280;46899;47.542;19.082;2023-05-12T13:36:56;100698.47;;;12.04;100.00
61014;BME280;46899;47.542;19.082;2023-05-12T13:39:58;100699.84;;;11.91;100.00
61014;BME280;46899;47.542;19.082;2023-05-12T13:43:01;100702.03;;;12.03;100.00
61014;BME280;46899;47.542;19.082;2023-05-12T13:46:03;100703.16;;;11.95;100.00
61014;BME280;46899;47.542;19.082;2023-05-12T13:49:06;100705.69;;;11.98;100.00
61014;BME280;46899;47.542;19.082;2023-05-12T13:52:09;100707.75;;;11.88;100.00
61014;BME280;46899;47.542;19.082;2023-05-12T13:55:11;100717.88;;;11.97;100.00
61014;BME280;46899;47.542;19.082;2023-05-12T13:58:22;100718.34;;;11.84;100.00
61014;BME280;46899;47.542;19.082;2023-05-12T14:01:24;100716.59;;;11.84;100.00
61014;BME280;46899;47.542;19.082;2023-05-12T14:04:27;100717.72;;;11.77;100.00
61014;BME280;46899;47.542;19.082;2023-05-12T14:07:30;100710.19;;;11.68;100.00
61014;BME280;46899;47.542;19.082;2023-05-12T14:10:32;100712.69;;;11.71;100.00
61014;BME280;46899;47.542;19.082;2023-05-12T14:13:36;100719.84;;;11.64;100.00
61014;BME280;46899;47.542;19.082;2023-05-12T14:16:39;100716.09;;;11.47;100.00
61014;BME280;46899;47.542;19.082;2023-05-12T14:19:42;100717.72;;;11.49;100.00
61014;BME280;46899;47.542;19.082;2023-05-12T14:22:44;100720.47;;;11.45;100.00
61014;BME280;46899;47.542;19.082;2023-05-12T14:25:47;100726.00;;;11.36;100.00
61014;BME280;46899;47.542;19.082;2023-05-12T14:28:49;100725.56;;;11.23;100.00
61014;BME280;46899;47.542;19.082;2023-05-12T14:31:52;100739.78;;;11.12;100.00
61014;BME280;46899;47.542;19.082;2023-05-12T14:34:54;100731.28;;;11.07;100.00
61014;BME280;46899;47.542;19.082;2023-05-12T14:37:57;100733.03;;;11.06;100.00
61014;BME280;46899;47.542;19.082;2023-05-12T14:40:59;100736.38;;;11.10;100.00
61014;BME280;46899;47.542;19.082;2023-05-12T14:44:01;100737.44;;;11.04;100.00
61014;BME280;46899;47.542;19.082;2023-05-12T14:47:04;100747.06;;;11.00;100.00
61014;BME280;46899;47.542;19.082;2023-05-12T14:50:10;100743.75;;;10.95;100.00
61014;BME280;46899;47.542;19.082;2023-05-12T14:53:12;100747.16;;;10.97;100.00
61014;BME280;46899;47.542;19.082;2023-05-12T14:56:15;100750.69;;;10.96;100.00
61014;BME280;46899;47.542;19.082;2023-05-12T14:59:18;100750.84;;;10.90;100.00
61014;BME280;46899;47.542;19.082;2023-05-12T15:02:20;100750.16;;;10.85;100.00
61014;BME280;46899;47.542;19.082;2023-05-12T15:05:23;100757.12;;;10.83;100.00
61014;BME280;46899;47.542;19.082;2023-05-12T15:08:45;100750.25;;;10.82;100.00
61014;BME280;46899;47.542;19.082;2023-05-12T15:11:48;100755.37;;;10.84;100.00
61014;BME280;46899;47.542;19.082;2023-05-12T15:14:51;100750.97;;;10.87;100.00
61014;BME280;46899;47.542;19.082;2023-05-12T15:17:53;100758.72;;;10.89;100.00
61014;BME280;46899;47.542;19.082;2023-05-12T15:20:56;100763.84;;;10.90;100.00
61014;BME280;46899;47.542;19.082;2023-05-12T15:23:59;100758.84;;;10.84;100.00
61014;BME280;46899;47.542;19.082;2023-05-12T15:27:01;100766.44;;;10.92;100.00
61014;BME280;46899;47.542;19.082;2023-05-12T15:30:04;100768.25;;;10.88;100.00
61014;BME280;46899;47.542;19.082;2023-05-12T15:33:07;100763.19;;;10.85;100.00
61014;BME280;46899;47.542;19.082;2023-05-12T15:36:10;100765.72;;;10.87;100.00
61014;BME280;46899;47.542;19.082;2023-05-12T15:39:15;100766.31;;;10.96;100.00